sensor_id;sensor_type;location;lat;lon;timestamp;pressure;altitude;pressure_sealevel;temperature;humidity
36248;BME280;22287;50.824;5.644;2023-04-01T00:01:20;98617.78;;;10.44;83.02
36248;BME280;22287;50.824;5.644;2023-04-01T00:03:47;98614.88;;;10.53;83.92
36248;BME280;22287;50.824;5.644;2023-04-01T00:06:16;98618.28;;;10.47;84.36
36248;BME280;22287;50.824;5.644;2023-04-01T00:08:44;98618.13;;;10.49;83.79
36248;BME280;22287;50.824;5.644;2023-04-01T00:11:12;98622.84;;;10.47;84.65
36248;BME280;22287;50.824;5.644;2023-04-01T00:13:39;98623.63;;;10.55;83.63
36248;BME280;22287;50.824;5.644;2023-04-01T00:16:07;98618.59;;;10.90;82.21
36248;BME280;22287;50.824;5.644;2023-04-01T00:18:45;98625.84;;;10.52;83.15
36248;BME280;22287;50.824;5.644;2023-04-01T00:21:14;98614.78;;;10.61;83.83
36248;BME280;22287;50.824;5.644;2023-04-01T00:23:41;98609.53;;;10.45;83.62
36248;BME280;22287;50.824;5.644;2023-04-01T00:26:08;98616.84;;;10.59;83.54
36248;BME280;22287;50.824;5.644;2023-04-01T00:28:36;98617.53;;;10.76;82.22
36248;BME280;22287;50.824;5.644;2023-04-01T00:31:09;98616.81;;;10.82;82.85
36248;BME280;22287;50.824;5.644;2023-04-01T00:33:38;98616.03;;;10.74;82.34
36248;BME280;22287;50.824;5.644;2023-04-01T00:36:17;98612.97;;;10.77;82.58
36248;BME280;22287;50.824;5.644;2023-04-01T00:38:45;98616.47;;;10.63;82.23
36248;BME280;22287;50.824;5.644;2023-04-01T00:41:14;98620.13;;;10.47;83.34
36248;BME280;22287;50.824;5.644;2023-04-01T00:43:43;98613.25;;;10.44;84.51
36248;BME280;22287;50.824;5.644;2023-04-01T00:46:11;98614.28;;;10.43;84.17
36248;BME280;22287;50.824;5.644;2023-04-01T00:48:41;98617.31;;;10.63;83.70
36248;BME280;22287;50.824;5.644;2023-04-01T00:51:16;98611.09;;;10.17;85.30
36248;BME280;22287;50.824;5.644;2023-04-01T00:53:48;98608.44;;;10.54;84.00
36248;BME280;22287;50.824;5.644;2023-04-01T00:56:19;98617.56;;;10.53;83.29
36248;BME280;22287;50.824;5.644;2023-04-01T00:58:52;98619.25;;;10.54;83.37
36248;BME280;22287;50.824;5.644;2023-04-01T01:01:22;98614.78;;;10.61;82.93
36248;BME280;22287;50.824;5.644;2023-04-01T01:03:50;98617.16;;;10.42;83.93
36248;BME280;22287;50.824;5.644;2023-04-01T01:09:31;98613.13;;;9.84;86.43
36248;BME280;22287;50.824;5.644;2023-04-01T01:17:38;98609.31;;;10.32;84.58
36248;BME280;22287;50.824;5.644;2023-04-01T01:26:45;98616.16;;;10.12;85.14
36248;BME280;22287;50.824;5.644;2023-04-01T01:37:56;98600.94;;;10.19;84.60
36248;BME280;22287;50.824;5.644;2023-04-01T01:40:26;98607.41;;;10.10;85.82
36248;BME280;22287;50.824;5.644;2023-04-01T01:42:58;98605.13;;;10.44;83.84
36248;BME280;22287;50.824;5.644;2023-04-01T01:45:26;98605.47;;;10.27;84.30
36248;BME280;22287;50.824;5.644;2023-04-01T01:47:55;98608.88;;;10.43;83.89
36248;BME280;22287;50.824;5.644;2023-04-01T01:50:23;98612.75;;;10.63;82.39
36248;BME280;22287;50.824;5.644;2023-04-01T01:53:01;98607.56;;;10.39;84.21
36248;BME280;22287;50.824;5.644;2023-04-01T01:55:36;98612.16;;;10.53;83.75
36248;BME280;22287;50.824;5.644;2023-04-01T01:58:30;98604.94;;;10.69;82.93
36248;BME280;22287;50.824;5.644;2023-04-01T02:00:56;98609.53;;;10.45;83.64
36248;BME280;22287;50.824;5.644;2023-04-01T02:03:25;98613.72;;;10.71;82.46
36248;BME280;22287;50.824;5.644;2023-04-01T02:05:56;98615.50;;;10.55;83.10
36248;BME280;22287;50.824;5.644;2023-04-01T02:08:40;98616.72;;;10.30;84.11
36248;BME280;22287;50.824;5.644;2023-04-01T02:11:12;98619.97;;;10.48;83.97
36248;BME280;22287;50.824;5.644;2023-04-01T02:16:20;98629.09;;;10.47;84.18
36248;BME280;22287;50.824;5.644;2023-04-01T02:18:51;98632.44;;;10.49;83.57
36248;BME280;22287;50.824;5.644;2023-04-01T02:21:22;98627.16;;;10.33;84.80
36248;BME280;22287;50.824;5.644;2023-04-01T02:23:52;98626.22;;;10.49;84.12
36248;BME280;22287;50.824;5.644;2023-04-01T02:26:21;98631.72;;;10.55;84.29
36248;BME280;22287;50.824;5.644;2023-04-01T02:28:50;98630.19;;;10.76;83.10
36248;BME280;22287;50.824;5.644;2023-04-01T02:31:19;98626.44;;;10.62;83.31
36248;BME280;22287;50.824;5.644;2023-04-01T02:33:47;98633.19;;;10.81;82.83
36248;BME280;22287;50.824;5.644;2023-04-01T02:36:15;98620.25;;;10.91;81.71
36248;BME280;22287;50.824;5.644;2023-04-01T02:38:44;98626.00;;;10.73;82.93
36248;BME280;22287;50.824;5.644;2023-04-01T02:41:12;98628.94;;;10.63;83.46
36248;BME280;22287;50.824;5.644;2023-04-01T02:43:39;98631.28;;;10.67;83.05
36248;BME280;22287;50.824;5.644;2023-04-01T02:46:06;98627.78;;;10.81;82.98
36248;BME280;22287;50.824;5.644;2023-04-01T02:48:33;98625.09;;;10.58;83.95
36248;BME280;22287;50.824;5.644;2023-04-01T02:51:00;98621.94;;;10.54;83.73
36248;BME280;22287;50.824;5.644;2023-04-01T02:53:27;98619.75;;;10.35;85.44
36248;BME280;22287;50.824;5.644;2023-04-01T02:55:54;98627.94;;;10.42;85.58
36248;BME280;22287;50.824;5.644;2023-04-01T02:58:22;98629.38;;;10.52;83.68
36248;BME280;22287;50.824;5.644;2023-04-01T03:00:49;98637.47;;;10.52;85.02
36248;BME280;22287;50.824;5.644;2023-04-01T03:03:16;98631.28;;;10.44;84.55
36248;BME280;22287;50.824;5.644;2023-04-01T03:05:43;98643.78;;;10.45;84.44
36248;BME280;22287;50.824;5.644;2023-04-01T03:08:10;98644.44;;;10.47;85.08
36248;BME280;22287;50.824;5.644;2023-04-01T03:10:38;98643.97;;;10.43;84.98
36248;BME280;22287;50.824;5.644;2023-04-01T03:13:05;98652.59;;;10.61;83.95
36248;BME280;22287;50.824;5.644;2023-04-01T03:15:33;98658.00;;;10.16;85.48
36248;BME280;22287;50.824;5.644;2023-04-01T03:18:01;98657.78;;;10.48;85.59
36248;BME280;22287;50.824;5.644;2023-04-01T03:20:28;98663.00;;;10.27;86.11
36248;BME280;22287;50.824;5.644;2023-04-01T03:22:54;98662.31;;;10.25;85.81
36248;BME280;22287;50.824;5.644;2023-04-01T03:25:21;98661.97;;;10.51;84.58
36248;BME280;22287;50.824;5.644;2023-04-01T03:27:48;98670.97;;;10.43;85.04
36248;BME280;22287;50.824;5.644;2023-04-01T03:30:15;98671.09;;;10.50;84.60
36248;BME280;22287;50.824;5.644;2023-04-01T03:32:48;98677.22;;;10.21;86.45
36248;BME280;22287;50.824;5.644;2023-04-01T03:35:15;98669.53;;;10.55;85.34
36248;BME280;22287;50.824;5.644;2023-04-01T03:37:44;98677.03;;;10.45;84.54
36248;BME280;22287;50.824;5.644;2023-04-01T03:40:11;98679.50;;;10.32;86.52
36248;BME280;22287;50.824;5.644;2023-04-01T03:42:38;98678.72;;;10.46;85.52
36248;BME280;22287;50.824;5.644;2023-04-01T03:45:05;98685.44;;;10.50;84.83
36248;BME280;22287;50.824;5.644;2023-04-01T03:47:33;98673.84;;;10.65;84.37
36248;BME280;22287;50.824;5.644;2023-04-01T03:50:00;98678.94;;;10.06;87.98
36248;BME280;22287;50.824;5.644;2023-04-01T03:52:26;98685.47;;;10.20;87.21
36248;BME280;22287;50.824;5.644;2023-04-01T03:54:53;98693.22;;;10.23;86.78
36248;BME280;22287;50.824;5.644;2023-04-01T03:57:20;98686.63;;;10.48;86.31
36248;BME280;22287;50.824;5.644;2023-04-01T03:59:47;98685.31;;;10.44;85.45
36248;BME280;22287;50.824;5.644;2023-04-01T04:02:14;98692.16;;;10.32;86.69
36248;BME280;22287;50.824;5.644;2023-04-01T04:04:41;98698.56;;;10.31;86.19
36248;BME280;22287;50.824;5.644;2023-04-01T04:07:09;98700.22;;;10.01;88.71
36248;BME280;22287;50.824;5.644;2023-04-01T04:09:55;98706.00;;;10.29;86.82
36248;BME280;22287;50.824;5.644;2023-04-01T04:12:22;98710.09;;;10.17;87.33
36248;BME280;22287;50.824;5.644;2023-04-01T04:14:49;98711.44;;;10.21;86.96
36248;BME280;22287;50.824;5.644;2023-04-01T04:17:16;98704.09;;;10.37;86.32
36248;BME280;22287;50.824;5.644;2023-04-01T04:19:43;98714.31;;;10.19;87.05
36248;BME280;22287;50.824;5.644;2023-04-01T04:22:10;98714.31;;;10.19;86.80
36248;BME280;22287;50.824;5.644;2023-04-01T04:24:37;98712.16;;;10.45;86.70
36248;BME280;22287;50.824;5.644;2023-04-01T04:27:10;98716.84;;;10.21;86.34
36248;BME280;22287;50.824;5.644;2023-04-01T04:29:47;98733.75;;;10.07;88.17
36248;BME280;22287;50.824;5.644;2023-04-01T04:32:13;98733.22;;;10.11;87.16
36248;BME280;22287;50.824;5.644;2023-04-01T04:34:40;98728.34;;;10.07;88.41
36248;BME280;22287;50.824;5.644;2023-04-01T04:37:07;98731.34;;;10.20;87.52
36248;BME280;22287;50.824;5.644;2023-04-01T04:39:35;98736.59;;;10.44;85.42
36248;BME280;22287;50.824;5.644;2023-04-01T04:42:02;98735.88;;;10.27;86.48
36248;BME280;22287;50.824;5.644;2023-04-01T04:44:29;98732.84;;;10.22;87.21
36248;BME280;22287;50.824;5.644;2023-04-01T04:46:57;98744.06;;;10.42;86.36
36248;BME280;22287;50.824;5.644;2023-04-01T04:49:24;98743.53;;;10.08;87.23
36248;BME280;22287;50.824;5.644;2023-04-01T04:51:51;98745.56;;;10.44;85.83
36248;BME280;22287;50.824;5.644;2023-04-01T04:54:22;98752.09;;;10.11;88.24
36248;BME280;22287;50.824;5.644;2023-04-01T04:56:55;98751.00;;;9.89;89.56
36248;BME280;22287;50.824;5.644;2023-04-01T04:59:24;98763.75;;;10.12;88.31
36248;BME280;22287;50.824;5.644;2023-04-01T05:01:58;98751.78;;;10.14;87.51
36248;BME280;22287;50.824;5.644;2023-04-01T05:04:27;98756.84;;;10.17;87.97
36248;BME280;22287;50.824;5.644;2023-04-01T05:06:54;98758.19;;;10.52;85.88
36248;BME280;22287;50.824;5.644;2023-04-01T05:09:22;98753.03;;;10.34;86.30
36248;BME280;22287;50.824;5.644;2023-04-01T05:11:49;98766.97;;;10.15;87.31
36248;BME280;22287;50.824;5.644;2023-04-01T05:14:17;98768.91;;;10.37;86.13
36248;BME280;22287;50.824;5.644;2023-04-01T05:16:53;98766.31;;;10.44;85.45
36248;BME280;22287;50.824;5.644;2023-04-01T05:19:21;98768.22;;;9.96;87.90
36248;BME280;22287;50.824;5.644;2023-04-01T05:21:48;98775.28;;;9.89;88.59
36248;BME280;22287;50.824;5.644;2023-04-01T05:24:15;98777.88;;;9.83;89.46
36248;BME280;22287;50.824;5.644;2023-04-01T05:26:42;98775.44;;;9.96;89.32
36248;BME280;22287;50.824;5.644;2023-04-01T05:29:10;98778.44;;;10.17;86.98
36248;BME280;22287;50.824;5.644;2023-04-01T05:31:38;98780.91;;;9.80;88.88
36248;BME280;22287;50.824;5.644;2023-04-01T05:34:05;98777.94;;;10.05;88.37
36248;BME280;22287;50.824;5.644;2023-04-01T05:36:32;98788.81;;;10.36;86.66
36248;BME280;22287;50.824;5.644;2023-04-01T05:38:59;98790.41;;;10.07;87.60
36248;BME280;22287;50.824;5.644;2023-04-01T05:41:27;98790.75;;;10.50;85.52
36248;BME280;22287;50.824;5.644;2023-04-01T05:43:54;98783.16;;;10.54;84.61
36248;BME280;22287;50.824;5.644;2023-04-01T05:46:39;98798.28;;;10.32;86.72
36248;BME280;22287;50.824;5.644;2023-04-01T05:49:21;98797.16;;;10.19;86.50
36248;BME280;22287;50.824;5.644;2023-04-01T05:51:51;98801.75;;;10.02;87.63
36248;BME280;22287;50.824;5.644;2023-04-01T05:54:18;98807.66;;;9.89;89.39
36248;BME280;22287;50.824;5.644;2023-04-01T05:56:46;98803.91;;;10.07;88.48
36248;BME280;22287;50.824;5.644;2023-04-01T05:59:14;98802.41;;;10.04;88.46
36248;BME280;22287;50.824;5.644;2023-04-01T06:01:41;98811.00;;;10.08;88.19
36248;BME280;22287;50.824;5.644;2023-04-01T06:04:17;98814.56;;;9.92;89.40
36248;BME280;22287;50.824;5.644;2023-04-01T06:06:45;98808.19;;;9.85;89.46
36248;BME280;22287;50.824;5.644;2023-04-01T06:09:22;98819.94;;;10.00;89.20
36248;BME280;22287;50.824;5.644;2023-04-01T06:12:24;98825.72;;;9.89;89.33
36248;BME280;22287;50.824;5.644;2023-04-01T06:15:25;98824.97;;;10.19;88.05
36248;BME280;22287;50.824;5.644;2023-04-01T06:23:34;98836.16;;;10.16;88.80
36248;BME280;22287;50.824;5.644;2023-04-01T06:29:17;98845.19;;;10.31;87.08
36248;BME280;22287;50.824;5.644;2023-04-01T06:46:02;98858.94;;;10.52;85.98
36248;BME280;22287;50.824;5.644;2023-04-01T06:51:55;98870.16;;;10.33;87.53
36248;BME280;22287;50.824;5.644;2023-04-01T06:55:01;98867.56;;;10.48;86.90
36248;BME280;22287;50.824;5.644;2023-04-01T06:58:04;98876.94;;;10.29;87.66
36248;BME280;22287;50.824;5.644;2023-04-01T07:00:50;98880.47;;;10.30;88.08
36248;BME280;22287;50.824;5.644;2023-04-01T07:05:46;98877.97;;;10.20;88.38
36248;BME280;22287;50.824;5.644;2023-04-01T07:08:28;98880.28;;;10.31;87.72
36248;BME280;22287;50.824;5.644;2023-04-01T07:11:04;98884.72;;;10.16;89.53
36248;BME280;22287;50.824;5.644;2023-04-01T07:14:04;98886.69;;;10.30;88.96
36248;BME280;22287;50.824;5.644;2023-04-01T07:16:44;98895.84;;;10.21;88.99
36248;BME280;22287;50.824;5.644;2023-04-01T07:19:22;98887.78;;;10.60;86.83
36248;BME280;22287;50.824;5.644;2023-04-01T07:22:04;98897.81;;;10.43;86.81
36248;BME280;22287;50.824;5.644;2023-04-01T07:25:02;98900.31;;;10.45;87.60
36248;BME280;22287;50.824;5.644;2023-04-01T07:27:29;98911.50;;;10.34;88.21
36248;BME280;22287;50.824;5.644;2023-04-01T07:29:57;98912.38;;;10.10;89.32
36248;BME280;22287;50.824;5.644;2023-04-01T07:35:43;98911.72;;;10.16;89.77
36248;BME280;22287;50.824;5.644;2023-04-01T07:40:58;98925.88;;;10.26;89.46
36248;BME280;22287;50.824;5.644;2023-04-01T07:55:12;98937.25;;;10.52;87.66
36248;BME280;22287;50.824;5.644;2023-04-01T08:00:44;98948.44;;;10.33;88.86
36248;BME280;22287;50.824;5.644;2023-04-01T08:11:50;98965.66;;;10.48;88.72
36248;BME280;22287;50.824;5.644;2023-04-01T08:18:16;98971.22;;;10.94;86.33
36248;BME280;22287;50.824;5.644;2023-04-01T08:20:53;98977.81;;;10.91;86.55
36248;BME280;22287;50.824;5.644;2023-04-01T08:23:24;98984.03;;;10.45;88.36
36248;BME280;22287;50.824;5.644;2023-04-01T08:26:00;98978.81;;;10.43;89.73
36248;BME280;22287;50.824;5.644;2023-04-01T08:33:46;98993.19;;;10.91;87.18
36248;BME280;22287;50.824;5.644;2023-04-01T08:36:23;99001.06;;;10.61;87.91
36248;BME280;22287;50.824;5.644;2023-04-01T08:48:23;98999.84;;;10.64;88.99
36248;BME280;22287;50.824;5.644;2023-04-01T08:56:20;99025.59;;;10.91;87.98
36248;BME280;22287;50.824;5.644;2023-04-01T08:59:08;99019.72;;;10.87;88.11
36248;BME280;22287;50.824;5.644;2023-04-01T09:02:40;99028.94;;;11.48;85.35
36248;BME280;22287;50.824;5.644;2023-04-01T09:11:38;99037.75;;;11.03;88.92
36248;BME280;22287;50.824;5.644;2023-04-01T09:17:37;99040.59;;;11.48;85.76
36248;BME280;22287;50.824;5.644;2023-04-01T09:37:33;99057.59;;;11.26;87.36
36248;BME280;22287;50.824;5.644;2023-04-01T09:40:24;99068.19;;;11.74;84.79
36248;BME280;22287;50.824;5.644;2023-04-01T09:48:38;99070.28;;;11.64;86.40
36248;BME280;22287;50.824;5.644;2023-04-01T10:08:10;99074.72;;;12.11;85.99
36248;BME280;22287;50.824;5.644;2023-04-01T10:39:54;99106.81;;;12.22;85.41
36248;BME280;22287;50.824;5.644;2023-04-01T11:12:50;99133.47;;;12.33;83.91
36248;BME280;22287;50.824;5.644;2023-04-01T11:45:35;99162.47;;;11.47;86.53
36248;BME280;22287;50.824;5.644;2023-04-01T11:51:13;99170.03;;;11.67;86.60
36248;BME280;22287;50.824;5.644;2023-04-01T12:14:32;99205.00;;;12.16;85.03
36248;BME280;22287;50.824;5.644;2023-04-01T12:37:08;99222.44;;;12.21;84.64
36248;BME280;22287;50.824;5.644;2023-04-01T12:42:58;99224.34;;;11.58;86.21
36248;BME280;22287;50.824;5.644;2023-04-01T12:46:10;99222.75;;;11.96;84.54
36248;BME280;22287;50.824;5.644;2023-04-01T12:52:07;99228.53;;;12.46;83.18
36248;BME280;22287;50.824;5.644;2023-04-01T12:58:51;99235.25;;;12.27;84.07
36248;BME280;22287;50.824;5.644;2023-04-01T13:09:53;99244.63;;;11.70;85.93
36248;BME280;22287;50.824;5.644;2023-04-01T13:21:15;99254.50;;;12.02;83.83
36248;BME280;22287;50.824;5.644;2023-04-01T13:31:52;99261.16;;;12.83;79.76
36248;BME280;22287;50.824;5.644;2023-04-01T13:37:07;99274.56;;;11.85;84.57
36248;BME280;22287;50.824;5.644;2023-04-01T13:42:49;99286.25;;;11.37;87.30
36248;BME280;22287;50.824;5.644;2023-04-01T13:50:55;99286.25;;;11.37;87.86
36248;BME280;22287;50.824;5.644;2023-04-01T13:57:33;99298.91;;;11.76;84.74
36248;BME280;22287;50.824;5.644;2023-04-01T14:06:02;99306.03;;;11.45;87.38
36248;BME280;22287;50.824;5.644;2023-04-01T14:11:43;99302.53;;;12.08;84.66
36248;BME280;22287;50.824;5.644;2023-04-01T14:20:27;99326.31;;;11.82;85.09
36248;BME280;22287;50.824;5.644;2023-04-01T14:23:13;99322.91;;;11.96;84.25
36248;BME280;22287;50.824;5.644;2023-04-01T14:34:50;99332.41;;;11.75;86.27
36248;BME280;22287;50.824;5.644;2023-04-01T14:43:38;99339.78;;;12.06;84.82
36248;BME280;22287;50.824;5.644;2023-04-01T14:46:23;99345.84;;;12.16;84.09
36248;BME280;22287;50.824;5.644;2023-04-01T14:49:22;99345.28;;;11.82;84.99
36248;BME280;22287;50.824;5.644;2023-04-01T14:52:28;99357.28;;;11.87;85.59
36248;BME280;22287;50.824;5.644;2023-04-01T14:55:31;99343.75;;;11.79;86.01
36248;BME280;22287;50.824;5.644;2023-04-01T14:58:12;99359.94;;;12.03;85.37
36248;BME280;22287;50.824;5.644;2023-04-01T15:03:38;99358.78;;;11.90;85.83
36248;BME280;22287;50.824;5.644;2023-04-01T15:06:35;99362.41;;;12.21;85.74
36248;BME280;22287;50.824;5.644;2023-04-01T15:15:14;99371.63;;;11.88;86.71
36248;BME280;22287;50.824;5.644;2023-04-01T15:18:09;99371.78;;;12.02;86.58
36248;BME280;22287;50.824;5.644;2023-04-01T15:21:08;99374.50;;;11.94;85.14
36248;BME280;22287;50.824;5.644;2023-04-01T15:26:42;99383.69;;;12.40;83.12
36248;BME280;22287;50.824;5.644;2023-04-01T15:32:21;99390.66;;;12.26;82.65
36248;BME280;22287;50.824;5.644;2023-04-01T15:34:59;99383.78;;;12.08;85.12
36248;BME280;22287;50.824;5.644;2023-04-01T15:37:54;99384.34;;;11.79;85.68
36248;BME280;22287;50.824;5.644;2023-04-01T15:48:01;99400.34;;;12.13;83.15
36248;BME280;22287;50.824;5.644;2023-04-01T15:53:13;99403.72;;;12.23;83.03
36248;BME280;22287;50.824;5.644;2023-04-01T16:09:33;99414.56;;;12.23;82.24
36248;BME280;22287;50.824;5.644;2023-04-01T16:12:17;99426.47;;;11.98;83.44
36248;BME280;22287;50.824;5.644;2023-04-01T16:20:22;99433.03;;;11.71;84.94
36248;BME280;22287;50.824;5.644;2023-04-01T16:23:02;99434.25;;;11.85;83.79
36248;BME280;22287;50.824;5.644;2023-04-01T16:25:51;99441.88;;;11.81;84.03
36248;BME280;22287;50.824;5.644;2023-04-01T16:36:42;99448.47;;;11.70;83.22
36248;BME280;22287;50.824;5.644;2023-04-01T16:41:49;99450.09;;;11.63;83.56
36248;BME280;22287;50.824;5.644;2023-04-01T16:44:20;99454.84;;;12.10;81.78
36248;BME280;22287;50.824;5.644;2023-04-01T16:46:56;99459.63;;;11.84;83.44
36248;BME280;22287;50.824;5.644;2023-04-01T16:55:17;99466.63;;;11.28;82.58
36248;BME280;22287;50.824;5.644;2023-04-01T16:57:55;99469.31;;;11.28;82.42
36248;BME280;22287;50.824;5.644;2023-04-01T17:00:39;99475.38;;;11.14;83.15
36248;BME280;22287;50.824;5.644;2023-04-01T17:11:19;99485.75;;;10.85;83.26
36248;BME280;22287;50.824;5.644;2023-04-01T17:14:04;99496.75;;;10.91;82.13
36248;BME280;22287;50.824;5.644;2023-04-01T17:27:59;99507.00;;;10.80;85.37
36248;BME280;22287;50.824;5.644;2023-04-01T17:31:00;99511.91;;;10.50;85.94
36248;BME280;22287;50.824;5.644;2023-04-01T17:36:00;99526.03;;;10.44;86.52
36248;BME280;22287;50.824;5.644;2023-04-01T17:38:40;99522.16;;;10.73;85.67
36248;BME280;22287;50.824;5.644;2023-04-01T17:52:37;99549.25;;;9.94;87.65
36248;BME280;22287;50.824;5.644;2023-04-01T18:09:33;99566.22;;;10.22;86.65
36248;BME280;22287;50.824;5.644;2023-04-01T18:12:19;99577.22;;;10.11;86.91
36248;BME280;22287;50.824;5.644;2023-04-01T18:18:02;99584.28;;;10.21;86.92
36248;BME280;22287;50.824;5.644;2023-04-01T18:25:44;99588.91;;;10.80;83.66
36248;BME280;22287;50.824;5.644;2023-04-01T18:30:53;99597.00;;;10.80;84.31
36248;BME280;22287;50.824;5.644;2023-04-01T18:39:08;99610.94;;;10.85;83.04
36248;BME280;22287;50.824;5.644;2023-04-01T18:42:07;99603.28;;;11.06;82.81
36248;BME280;22287;50.824;5.644;2023-04-01T18:44:50;99606.84;;;10.81;83.17
36248;BME280;22287;50.824;5.644;2023-04-01T18:47:55;99611.16;;;11.00;82.96
36248;BME280;22287;50.824;5.644;2023-04-01T18:50:38;99607.94;;;11.30;80.36
36248;BME280;22287;50.824;5.644;2023-04-01T18:56:02;99622.25;;;10.63;83.86
36248;BME280;22287;50.824;5.644;2023-04-01T18:58:42;99623.03;;;10.55;84.10
36248;BME280;22287;50.824;5.644;2023-04-01T19:01:31;99613.56;;;10.51;83.89
36248;BME280;22287;50.824;5.644;2023-04-01T19:04:15;99634.84;;;10.37;84.79
36248;BME280;22287;50.824;5.644;2023-04-01T19:07:00;99631.59;;;10.51;84.28
36248;BME280;22287;50.824;5.644;2023-04-01T19:09:44;99630.63;;;10.78;83.06
36248;BME280;22287;50.824;5.644;2023-04-01T19:15:22;99633.63;;;10.49;83.29
36248;BME280;22287;50.824;5.644;2023-04-01T19:26:20;99654.13;;;10.59;84.08
36248;BME280;22287;50.824;5.644;2023-04-01T19:34:35;99657.94;;;10.75;82.89
36248;BME280;22287;50.824;5.644;2023-04-01T19:37:19;99658.44;;;10.70;83.02
36248;BME280;22287;50.824;5.644;2023-04-01T19:50:51;99664.41;;;10.56;83.92
36248;BME280;22287;50.824;5.644;2023-04-01T19:53:40;99665.44;;;10.81;82.64
36248;BME280;22287;50.824;5.644;2023-04-01T19:56:21;99672.44;;;10.66;83.48
36248;BME280;22287;50.824;5.644;2023-04-01T19:58:56;99675.44;;;10.63;83.29
36248;BME280;22287;50.824;5.644;2023-04-01T20:01:48;99681.16;;;10.24;86.28
36248;BME280;22287;50.824;5.644;2023-04-01T20:14:50;99701.47;;;10.46;85.44
36248;BME280;22287;50.824;5.644;2023-04-01T20:17:21;99714.94;;;10.28;84.67
36248;BME280;22287;50.824;5.644;2023-04-01T20:22:34;99712.72;;;10.59;84.08
36248;BME280;22287;50.824;5.644;2023-04-01T20:25:20;99711.88;;;10.23;85.96
36248;BME280;22287;50.824;5.644;2023-04-01T20:27:55;99711.63;;;10.34;86.31
36248;BME280;22287;50.824;5.644;2023-04-01T20:36:16;99721.59;;;10.16;86.56
36248;BME280;22287;50.824;5.644;2023-04-01T20:42:05;99734.81;;;10.54;83.71
36248;BME280;22287;50.824;5.644;2023-04-01T20:52:56;99750.75;;;9.76;89.53
36248;BME280;22287;50.824;5.644;2023-04-01T21:06:39;99771.31;;;10.76;85.53
36248;BME280;22287;50.824;5.644;2023-04-01T21:09:37;99773.88;;;10.60;84.20
36248;BME280;22287;50.824;5.644;2023-04-01T21:18:24;99788.16;;;10.25;87.09
36248;BME280;22287;50.824;5.644;2023-04-01T21:23:57;99800.97;;;10.23;87.35
36248;BME280;22287;50.824;5.644;2023-04-01T21:29:41;99811.66;;;10.15;87.43
36248;BME280;22287;50.824;5.644;2023-04-01T21:32:31;99809.72;;;9.98;88.95
36248;BME280;22287;50.824;5.644;2023-04-01T21:37:58;99819.06;;;10.03;89.15
36248;BME280;22287;50.824;5.644;2023-04-01T21:40:38;99827.00;;;10.15;88.43
36248;BME280;22287;50.824;5.644;2023-04-01T22:00:25;99860.09;;;10.44;85.10
36248;BME280;22287;50.824;5.644;2023-04-01T22:08:50;99870.72;;;10.28;87.44
36248;BME280;22287;50.824;5.644;2023-04-01T22:16:39;99884.56;;;10.05;87.90
36248;BME280;22287;50.824;5.644;2023-04-01T22:19:36;99893.38;;;10.44;85.77
36248;BME280;22287;50.824;5.644;2023-04-01T22:22:07;99887.78;;;10.28;85.98
36248;BME280;22287;50.824;5.644;2023-04-01T22:25:04;99895.97;;;9.99;87.58
36248;BME280;22287;50.824;5.644;2023-04-01T22:27:48;99897.22;;;10.15;86.25
36248;BME280;22287;50.824;5.644;2023-04-01T22:43:42;99930.56;;;9.48;89.91
36248;BME280;22287;50.824;5.644;2023-04-01T22:49:11;99937.03;;;9.84;87.58
36248;BME280;22287;50.824;5.644;2023-04-01T22:51:47;99936.31;;;9.91;88.41
36248;BME280;22287;50.824;5.644;2023-04-01T23:00:05;99956.13;;;9.63;88.98
36248;BME280;22287;50.824;5.644;2023-04-01T23:02:59;99965.59;;;9.67;88.70
36248;BME280;22287;50.824;5.644;2023-04-01T23:05:25;99972.72;;;9.49;88.31
36248;BME280;22287;50.824;5.644;2023-04-01T23:11:07;99986.47;;;9.36;88.35
36248;BME280;22287;50.824;5.644;2023-04-01T23:13:50;99976.81;;;9.53;87.96
36248;BME280;22287;50.824;5.644;2023-04-01T23:16:28;99992.88;;;9.35;88.21
36248;BME280;22287;50.824;5.644;2023-04-01T23:19:04;99993.03;;;9.63;86.82
36248;BME280;22287;50.824;5.644;2023-04-01T23:21:48;99992.44;;;9.30;88.29
36248;BME280;22287;50.824;5.644;2023-04-01T23:29:52;100013.75;;;9.43;87.18
36248;BME280;22287;50.824;5.644;2023-04-01T23:32:22;100019.28;;;9.41;86.99
36248;BME280;22287;50.824;5.644;2023-04-01T23:34:54;100020.69;;;9.45;86.79
36248;BME280;22287;50.824;5.644;2023-04-01T23:37:23;100020.41;;;9.29;87.75
36248;BME280;22287;50.824;5.644;2023-04-01T23:39:54;100035.13;;;9.25;87.47
36248;BME280;22287;50.824;5.644;2023-04-01T23:44:57;100032.59;;;9.33;87.60
36248;BME280;22287;50.824;5.644;2023-04-01T23:47:33;100041.41;;;9.35;86.93
36248;BME280;22287;50.824;5.644;2023-04-01T23:50:09;100048.41;;;9.57;87.04
36248;BME280;22287;50.824;5.644;2023-04-01T23:52:44;100046.09;;;9.43;86.88
36248;BME280;22287;50.824;5.644;2023-04-01T23:55:16;100063.06;;;9.15;87.98
36248;BME280;22287;50.824;5.644;2023-04-01T23:58:02;100067.63;;;9.33;88.09
